Time;durP1;ratioP1;P1;durP2;ratioP2;P2;SDS_P1;SDS_P2;PMS_P1;PMS_P2;Temp;Humidity;BMP_temperature;BMP_pressure;BME280_temperature;BME280_humidity;BME280_pressure;Samples;Min_cycle;Max_cycle;Signal;HPM_P1;HPM_P2
2021/07/19 00:01:29;;;;;;;9.02;2.83;;;20.00;73.10;;;;;;5034439;28;20100;-77
2021/07/19 00:03:55;;;;;;;7.60;2.92;;;19.90;72.50;;;;;;5033107;28;20037;-77
2021/07/19 00:06:22;;;;;;;6.65;2.97;;;19.90;72.60;;;;;;5033263;28;20045;-77
2021/07/19 00:08:48;;;;;;;5.88;2.58;;;19.80;72.80;;;;;;5033608;28;20033;-76
2021/07/19 00:11:13;;;;;;;7.30;3.08;;;19.80;72.90;;;;;;5033316;28;20037;-77
2021/07/19 00:13:39;;;;;;;5.53;2.90;;;19.80;73.00;;;;;;5034326;28;20463;-76
2021/07/19 00:16:05;;;;;;;6.07;2.95;;;19.80;73.10;;;;;;5033142;28;20519;-76
2021/07/19 00:18:31;;;;;;;6.53;2.75;;;19.70;73.10;;;;;;5034170;28;20022;-76
2021/07/19 00:20:58;;;;;;;7.25;2.88;;;19.70;73.30;;;;;;5033076;28;20022;-76
2021/07/19 00:23:25;;;;;;;7.70;3.03;;;19.70;73.30;;;;;;5033974;28;20448;-76
2021/07/19 00:25:51;;;;;;;5.13;2.83;;;19.70;73.40;;;;;;5032790;28;20052;-76
2021/07/19 00:28:17;;;;;;;6.68;3.38;;;19.60;73.50;;;;;;5033953;28;20033;-76
2021/07/19 00:30:43;;;;;;;4.97;2.53;;;19.60;73.50;;;;;;5032554;28;20034;-76
2021/07/19 00:33:10;;;;;;;5.93;2.65;;;19.60;73.60;;;;;;5033828;28;20026;-76
2021/07/19 00:35:36;;;;;;;7.45;3.25;;;19.60;73.70;;;;;;5033010;28;20392;-77
2021/07/19 00:38:03;;;;;;;8.30;3.72;;;19.50;73.70;;;;;;5033747;28;20446;-76
2021/07/19 00:40:31;;;;;;;8.30;3.40;;;19.50;73.80;;;;;;5033925;28;20026;-76
2021/07/19 00:42:58;;;;;;;8.18;3.53;;;19.50;73.80;;;;;;5033727;28;20100;-76
2021/07/19 00:45:28;;;;;;;7.15;3.33;;;19.50;74.00;;;;;;5032361;28;20033;-76
2021/07/19 00:47:55;;;;;;;5.55;3.20;;;19.40;74.00;;;;;;5033709;28;20117;-77
2021/07/19 00:50:22;;;;;;;8.07;3.38;;;19.40;74.10;;;;;;5033887;28;20117;-76
2021/07/19 00:52:48;;;;;;;6.80;2.92;;;19.40;74.20;;;;;;5032222;28;20033;-76
2021/07/19 00:55:16;;;;;;;7.88;3.10;;;19.40;74.30;;;;;;5032113;28;20017;-76
2021/07/19 00:57:47;;;;;;;6.53;3.40;;;19.30;74.30;;;;;;5033571;28;20498;-77
2021/07/19 01:00:14;;;;;;;6.43;2.83;;;19.30;74.40;;;;;;5033420;28;20075;-76
2021/07/19 01:02:43;;;;;;;6.88;3.47;;;19.30;74.50;;;;;;5033468;28;20425;-76
2021/07/19 01:05:09;;;;;;;7.82;3.30;;;19.30;74.70;;;;;;5031941;28;20013;-76
2021/07/19 01:07:37;;;;;;;7.95;3.60;;;19.20;74.70;;;;;;5032350;28;20028;-77
2021/07/19 01:10:17;;;;;;;8.70;2.97;;;19.20;74.80;;;;;;5032211;28;20030;-77
2021/07/19 01:12:48;;;;;;;8.75;3.60;;;19.10;75.00;;;;;;5031928;28;20029;-77
2021/07/19 01:15:15;;;;;;;7.70;3.20;;;19.10;75.10;;;;;;5033219;28;20069;-77
2021/07/19 01:17:42;;;;;;;7.47;3.78;;;19.10;75.20;;;;;;5032967;28;20025;-77
2021/07/19 01:20:08;;;;;;;6.85;3.40;;;19.10;75.40;;;;;;5031675;28;20029;-77
2021/07/19 01:23:02;;;;;;;8.80;3.60;;;19.00;75.40;;;;;;5033101;28;20031;-77
2021/07/19 01:25:57;;;;;;;6.68;3.33;;;19.00;75.70;;;;;;5033161;28;20497;-77
2021/07/19 01:28:31;;;;;;;;;;;19.00;75.70;;;;;;5033411;28;20425;-77
2021/07/19 01:31:01;;;;;;;;;;;18.90;75.60;;;;;;5033360;28;20343;-78
2021/07/19 01:33:29;;;;;;;6.28;3.10;;;19.00;75.40;;;;;;5032947;28;20407;-77
2021/07/19 01:35:57;;;;;;;7.00;3.47;;;18.90;75.20;;;;;;5031760;28;20113;-78
2021/07/19 01:38:23;;;;;;;8.77;4.15;;;18.80;75.40;;;;;;5031507;28;20038;-78
2021/07/19 01:40:50;;;;;;;8.35;3.40;;;18.80;75.60;;;;;;5031687;28;20038;-78
2021/07/19 01:43:16;;;;;;;7.63;3.55;;;18.80;75.90;;;;;;5031812;28;20021;-77
2021/07/19 01:45:42;;;;;;;8.85;4.32;;;18.80;76.20;;;;;;5032898;28;20025;-77
2021/07/19 01:48:10;;;;;;;9.52;4.10;;;18.80;76.30;;;;;;5031910;28;20029;-78
2021/07/19 01:50:36;;;;;;;6.72;3.45;;;18.80;76.50;;;;;;5031646;28;20056;-77
2021/07/19 01:53:02;;;;;;;6.10;3.75;;;18.70;76.50;;;;;;5032701;28;20033;-77
2021/07/19 01:55:29;;;;;;;9.43;3.50;;;18.70;76.70;;;;;;5031349;28;20052;-77
2021/07/19 01:57:56;;;;;;;9.40;4.28;;;18.70;77.40;;;;;;5014912;28;20044;-77
2021/07/19 02:00:23;;;;;;;7.55;3.17;;;18.70;76.90;;;;;;5032727;28;20079;-77
2021/07/19 02:02:51;;;;;;;8.68;3.83;;;18.60;76.90;;;;;;5031443;28;20481;-77
2021/07/19 02:05:18;;;;;;;7.50;3.70;;;18.60;77.00;;;;;;5031380;28;20129;-78
2021/07/19 02:07:50;;;;;;;8.75;4.15;;;18.60;77.10;;;;;;5031659;28;20053;-78
2021/07/19 02:10:17;;;;;;;7.80;3.38;;;18.60;77.20;;;;;;5031357;28;20385;-77
2021/07/19 02:12:44;;;;;;;8.05;3.50;;;18.50;77.30;;;;;;5031414;28;20028;-77
2021/07/19 02:15:13;;;;;;;6.53;3.28;;;18.50;77.40;;;;;;5031198;28;20080;-77
2021/07/19 02:17:44;;;;;;;9.30;4.03;;;18.50;77.50;;;;;;5032513;28;20025;-77
2021/07/19 02:20:10;;;;;;;9.20;3.88;;;18.40;77.60;;;;;;5032536;28;20029;-77
2021/07/19 02:22:41;;;;;;;8.13;3.83;;;18.40;77.60;;;;;;5032639;28;20029;-78
2021/07/19 02:25:08;;;;;;;6.47;3.25;;;18.40;77.80;;;;;;5032672;28;20490;-77
2021/07/19 02:27:41;;;;;;;7.28;3.40;;;18.40;77.90;;;;;;5032555;28;20108;-77
2021/07/19 02:30:09;;;;;;;9.75;4.22;;;18.30;78.60;;;;;;5031185;28;20024;-77
2021/07/19 02:32:39;;;;;;;7.07;3.58;;;18.30;78.10;;;;;;5034105;28;20022;-77
2021/07/19 02:35:06;;;;;;;6.30;3.35;;;18.30;78.30;;;;;;5036150;28;20029;-77
2021/07/19 02:37:41;;;;;;;9.02;3.67;;;18.20;78.30;;;;;;5035961;28;20025;-77
2021/07/19 02:40:08;;;;;;;8.23;3.95;;;18.20;78.50;;;;;;5018384;28;20021;-77
2021/07/19 02:42:36;;;;;;;7.68;3.80;;;18.20;78.60;;;;;;5034612;28;20057;-77
2021/07/19 02:45:06;;;;;;;6.78;3.78;;;18.20;78.80;;;;;;5034603;28;20083;-77
2021/07/19 02:47:31;;;;;;;8.90;4.20;;;18.10;79.00;;;;;;5034673;28;20033;-78
2021/07/19 02:49:58;;;;;;;6.72;3.53;;;18.10;79.10;;;;;;5018082;28;20025;-77
2021/07/19 02:52:24;;;;;;;10.63;4.00;;;18.10;79.40;;;;;;5034667;28;20408;-77
2021/07/19 02:54:50;;;;;;;7.45;2.90;;;18.00;79.40;;;;;;5035933;28;20200;-77
2021/07/19 02:57:16;;;;;;;6.90;3.28;;;18.00;79.60;;;;;;5034367;28;20382;-75
2021/07/19 02:59:42;;;;;;;6.95;3.22;;;17.90;79.70;;;;;;5035592;28;20029;-75
2021/07/19 03:02:10;;;;;;;10.95;3.60;;;17.90;79.90;;;;;;5017977;28;20029;-75
2021/07/19 03:04:38;;;;;;;9.57;3.88;;;17.90;80.10;;;;;;5034368;28;20026;-75
2021/07/19 03:07:06;;;;;;;8.25;3.80;;;17.80;80.10;;;;;;5035621;28;20021;-75
2021/07/19 03:09:33;;;;;;;9.50;4.03;;;17.80;80.30;;;;;;5017698;28;20029;-75
2021/07/19 03:12:01;;;;;;;10.10;4.07;;;17.80;80.30;;;;;;5035237;28;20377;-75
2021/07/19 03:14:30;;;;;;;10.13;4.47;;;17.80;80.40;;;;;;5034025;28;20018;-75
2021/07/19 03:16:56;;;;;;;7.40;3.67;;;17.70;80.40;;;;;;5033976;28;20029;-75
2021/07/19 03:19:23;;;;;;;9.10;4.28;;;17.70;80.50;;;;;;5035291;28;20152;-75
2021/07/19 03:21:53;;;;;;;8.23;4.00;;;17.70;80.60;;;;;;5035078;28;20026;-75
2021/07/19 03:24:21;;;;;;;10.02;3.90;;;17.70;80.80;;;;;;5033728;28;20018;-75
2021/07/19 03:26:48;;;;;;;7.97;4.03;;;17.60;80.90;;;;;;5034932;28;20479;-75
2021/07/19 03:29:16;;;;;;;6.63;3.30;;;17.60;81.00;;;;;;5035386;28;20053;-75
2021/07/19 03:31:42;;;;;;;10.43;4.15;;;17.60;81.20;;;;;;5033836;28;20021;-75
2021/07/19 03:34:11;;;;;;;8.65;4.38;;;17.60;81.30;;;;;;5033553;28;20095;-75
2021/07/19 03:36:37;;;;;;;8.55;4.35;;;17.50;81.30;;;;;;5033577;28;20401;-75
2021/07/19 03:39:05;;;;;;;7.90;3.85;;;17.50;82.10;;;;;;5016973;28;20117;-75
2021/07/19 03:41:31;;;;;;;8.25;4.20;;;17.50;81.50;;;;;;5034660;28;20354;-75
2021/07/19 03:43:58;;;;;;;8.85;4.18;;;17.50;81.60;;;;;;5033564;28;20061;-75
2021/07/19 03:46:24;;;;;;;8.73;4.22;;;17.50;81.70;;;;;;5033526;28;20389;-75
2021/07/19 03:48:51;;;;;;;12.80;4.47;;;17.50;81.90;;;;;;5034713;28;20034;-75
2021/07/19 03:51:17;;;;;;;10.15;3.80;;;17.50;82.00;;;;;;5034575;28;20132;-75
2021/07/19 03:53:43;;;;;;;9.48;4.05;;;17.50;82.10;;;;;;5034629;28;20096;-75
2021/07/19 03:56:09;;;;;;;8.70;4.10;;;17.50;82.20;;;;;;5033090;28;20053;-75
2021/07/19 03:58:36;;;;;;;9.27;4.60;;;17.50;82.30;;;;;;5033185;28;20392;-75
2021/07/19 04:01:02;;;;;;;7.65;3.78;;;17.40;83.00;;;;;;5022647;28;20052;-75
2021/07/19 04:03:33;;;;;;;8.20;3.83;;;17.40;82.40;;;;;;5054199;28;20501;-75
2021/07/19 04:06:01;;;;;;;7.85;4.00;;;17.40;82.50;;;;;;5053559;28;20076;-75
2021/07/19 04:08:31;;;;;;;11.85;4.55;;;17.40;82.60;;;;;;5052960;28;20017;-75
2021/07/19 04:10:58;;;;;;;12.73;5.05;;;17.40;82.70;;;;;;5054191;28;20025;-76
2021/07/19 04:13:25;;;;;;;11.40;4.28;;;17.40;82.80;;;;;;5052956;28;20499;-76
2021/07/19 04:15:52;;;;;;;8.85;4.50;;;17.40;83.60;;;;;;5053140;28;20154;-75
2021/07/19 04:18:19;;;;;;;8.13;4.60;;;17.40;83.00;;;;;;5053928;28;20056;-75
2021/07/19 04:20:45;;;;;;;11.50;4.68;;;17.40;83.10;;;;;;5054056;28;20381;-75
2021/07/19 04:23:12;;;;;;;9.13;4.28;;;17.40;83.20;;;;;;5053802;28;20039;-75
2021/07/19 04:25:39;;;;;;;8.27;4.00;;;17.40;83.20;;;;;;5036190;28;20384;-76
2021/07/19 04:28:05;;;;;;;10.30;4.47;;;17.50;83.30;;;;;;5036123;28;20036;-76
2021/07/19 04:30:33;;;;;;;11.30;4.53;;;17.40;83.40;;;;;;5053876;28;20056;-75
2021/07/19 04:32:59;;;;;;;7.78;4.18;;;17.50;83.50;;;;;;5052798;28;20027;-75
2021/07/19 04:35:25;;;;;;;12.38;5.13;;;17.50;83.50;;;;;;5052613;28;20115;-75
2021/07/19 04:37:52;;;;;;;8.73;4.22;;;17.50;83.60;;;;;;5052611;28;20116;-75
2021/07/19 04:40:19;;;;;;;6.93;4.15;;;17.50;83.60;;;;;;5052652;28;20108;-75
2021/07/19 04:42:46;;;;;;;8.68;4.82;;;17.50;83.60;;;;;;5052532;28;20499;-76
2021/07/19 04:45:18;;;;;;;8.23;3.85;;;17.50;83.70;;;;;;5053697;28;20012;-75
2021/07/19 04:47:44;;;;;;;8.65;3.85;;;17.50;83.80;;;;;;5052405;28;20029;-75
2021/07/19 04:50:16;;;;;;;7.57;3.88;;;17.60;83.80;;;;;;5052357;28;20037;-75
2021/07/19 04:52:42;;;;;;;10.25;4.38;;;17.60;83.90;;;;;;5052320;28;20102;-75
2021/07/19 04:55:11;;;;;;;9.57;4.20;;;17.60;83.90;;;;;;5053025;28;20109;-75
2021/07/19 04:57:38;;;;;;;6.22;2.92;;;17.60;83.90;;;;;;5053289;28;20103;-75
2021/07/19 05:00:05;;;;;;;9.15;4.18;;;17.70;84.00;;;;;;5053527;28;20032;-75
2021/07/19 05:02:34;;;;;;;8.88;4.05;;;17.70;84.00;;;;;;5035600;28;20040;-75
2021/07/19 05:05:01;;;;;;;8.00;4.25;;;17.80;84.10;;;;;;5053422;28;20017;-75
2021/07/19 05:07:32;;;;;;;9.20;4.32;;;17.80;84.10;;;;;;5053410;28;20029;-75
2021/07/19 05:10:00;;;;;;;7.55;3.83;;;17.80;84.10;;;;;;5053336;28;20029;-75
2021/07/19 05:12:29;;;;;;;9.55;3.95;;;17.80;84.10;;;;;;5053281;28;20056;-76
2021/07/19 05:14:55;;;;;;;10.35;4.70;;;17.90;84.10;;;;;;5053178;28;20429;-75
2021/07/19 05:17:21;;;;;;;9.00;4.10;;;17.90;84.00;;;;;;5051894;28;20029;-75
2021/07/19 05:19:48;;;;;;;8.10;4.05;;;17.90;84.00;;;;;;5051978;28;20428;-75
2021/07/19 05:22:16;;;;;;;9.85;4.05;;;17.90;84.00;;;;;;5052025;28;20048;-75
2021/07/19 05:24:43;;;;;;;7.95;3.95;;;17.90;84.00;;;;;;5053316;28;20104;-75
2021/07/19 05:27:10;;;;;;;9.05;4.22;;;17.90;84.00;;;;;;5035559;28;20021;-75
2021/07/19 05:29:37;;;;;;;8.45;3.47;;;18.00;84.00;;;;;;5051605;28;20013;-75
2021/07/19 05:32:04;;;;;;;10.65;4.32;;;18.10;84.00;;;;;;5051795;28;20083;-75
2021/07/19 05:34:30;;;;;;;7.22;4.43;;;18.10;83.80;;;;;;5035444;28;20469;-76
2021/07/19 05:36:56;;;;;;;9.70;4.18;;;18.20;83.80;;;;;;5052955;28;20086;-75
2021/07/19 05:39:22;;;;;;;7.82;3.78;;;18.20;83.80;;;;;;5052987;28;20040;-75
2021/07/19 05:41:47;;;;;;;9.30;4.43;;;18.20;83.70;;;;;;5051611;28;20385;-75
2021/07/19 05:44:13;;;;;;;7.40;3.92;;;18.30;83.60;;;;;;5051924;28;20472;-76
2021/07/19 05:46:39;;;;;;;7.20;4.10;;;18.30;83.50;;;;;;5052803;28;20392;-75
2021/07/19 05:49:05;;;;;;;8.68;3.92;;;18.30;83.50;;;;;;5053079;28;20080;-75
2021/07/19 05:51:31;;;;;;;7.10;3.47;;;18.40;83.40;;;;;;5048030;28;20033;-75
2021/07/19 05:53:56;;;;;;;7.63;3.58;;;18.50;83.40;;;;;;5047909;28;20034;-75
2021/07/19 05:56:22;;;;;;;8.05;3.67;;;18.50;83.30;;;;;;5038521;28;20524;-76
2021/07/19 05:58:48;;;;;;;10.15;3.83;;;18.60;83.20;;;;;;5034365;28;20045;-75
2021/07/19 06:01:13;;;;;;;7.38;3.80;;;18.60;83.20;;;;;;5032911;28;20415;-76
2021/07/19 06:03:39;;;;;;;8.82;3.97;;;18.70;83.20;;;;;;5031904;28;20499;-75
2021/07/19 06:06:08;;;;;;;6.65;3.60;;;18.80;83.20;;;;;;5032012;28;20362;-75
2021/07/19 06:08:33;;;;;;;14.60;4.50;;;18.90;83.10;;;;;;5028613;28;20036;-75
2021/07/19 06:10:59;;;;;;;8.52;4.07;;;19.00;82.90;;;;;;5034420;28;20033;-75
2021/07/19 06:13:25;;;;;;;8.75;5.13;;;19.10;82.70;;;;;;5034279;28;20031;-75
2021/07/19 06:15:50;;;;;;;10.60;4.40;;;19.10;82.30;;;;;;5049979;28;20040;-75
2021/07/19 06:18:16;;;;;;;10.48;4.78;;;19.20;82.10;;;;;;5051516;28;20037;-76
2021/07/19 06:20:42;;;;;;;9.23;4.78;;;19.30;81.70;;;;;;5056299;28;20511;-76
2021/07/19 06:23:08;;;;;;;10.05;4.00;;;19.30;81.40;;;;;;5035042;28;20029;-76
2021/07/19 06:25:35;;;;;;;7.20;4.60;;;19.40;81.20;;;;;;5036600;28;20025;-75
2021/07/19 06:28:02;;;;;;;8.20;4.60;;;19.50;81.00;;;;;;5035102;28;20029;-74
2021/07/19 06:30:28;;;;;;;10.45;4.88;;;19.50;80.80;;;;;;5035473;28;20433;-75
2021/07/19 06:32:58;;;;;;;9.30;4.75;;;19.50;80.60;;;;;;5035661;28;20082;-75
2021/07/19 06:35:24;;;;;;;10.85;5.53;;;19.50;80.50;;;;;;5035172;28;20087;-75
2021/07/19 06:37:50;;;;;;;11.35;5.03;;;19.50;80.30;;;;;;5051832;28;20513;-76
2021/07/19 06:40:16;;;;;;;12.43;5.50;;;19.50;80.20;;;;;;5052219;28;20072;-75
2021/07/19 06:42:42;;;;;;;9.40;4.53;;;19.50;80.10;;;;;;5036773;28;20474;-75
2021/07/19 06:45:10;;;;;;;9.15;5.28;;;19.50;80.00;;;;;;5055180;28;20083;-75
2021/07/19 06:47:36;;;;;;;11.00;5.50;;;19.60;80.00;;;;;;5054784;28;20032;-75
2021/07/19 06:50:04;;;;;;;11.95;5.38;;;19.60;80.10;;;;;;5055157;28;20029;-75
2021/07/19 06:52:29;;;;;;;11.15;4.72;;;19.70;80.30;;;;;;5055007;28;20037;-75
2021/07/19 06:54:55;;;;;;;10.65;4.82;;;19.80;80.30;;;;;;5038588;28;20040;-75
2021/07/19 06:57:21;;;;;;;8.75;4.55;;;19.80;80.20;;;;;;5038351;28;20049;-74
2021/07/19 06:59:47;;;;;;;10.27;4.70;;;19.90;80.30;;;;;;5054892;28;20082;-75
2021/07/19 07:02:13;;;;;;;9.93;4.90;;;19.90;80.20;;;;;;5054984;28;20116;-75
2021/07/19 07:04:38;;;;;;;9.75;4.28;;;20.00;80.20;;;;;;5054791;28;20021;-75
2021/07/19 07:07:04;;;;;;;7.68;3.97;;;20.10;80.20;;;;;;5038198;28;20025;-75
2021/07/19 07:09:32;;;;;;;11.75;4.20;;;20.10;80.30;;;;;;5037899;28;20035;-75
2021/07/19 07:11:58;;;;;;;12.65;5.00;;;20.20;81.10;;;;;;5038236;28;20421;-74
2021/07/19 07:14:23;;;;;;;8.85;4.53;;;20.20;80.10;;;;;;5055973;28;20108;-75
2021/07/19 07:16:49;;;;;;;10.02;5.10;;;20.20;80.00;;;;;;5054570;28;20025;-75
2021/07/19 07:19:15;;;;;;;11.63;4.63;;;20.30;79.90;;;;;;5052313;28;20373;-75
2021/07/19 07:21:41;;;;;;;11.05;4.45;;;20.30;79.80;;;;;;5037618;28;20040;-74
2021/07/19 07:24:06;;;;;;;9.35;4.03;;;20.40;79.80;;;;;;5054198;28;20033;-74
2021/07/19 07:26:32;;;;;;;8.50;4.13;;;20.40;79.50;;;;;;5055261;28;20086;-75
2021/07/19 07:28:58;;;;;;;9.15;4.50;;;20.50;79.40;;;;;;5054414;28;20033;-75
2021/07/19 07:31:27;;;;;;;9.30;4.13;;;20.60;79.30;;;;;;5037389;28;20538;-75
2021/07/19 07:33:57;;;;;;;10.00;4.15;;;20.70;79.00;;;;;;5054369;28;20124;-76
2021/07/19 07:36:24;;;;;;;9.50;4.63;;;20.70;78.80;;;;;;5053768;28;20481;-75
2021/07/19 07:38:50;;;;;;;10.15;4.30;;;20.70;78.50;;;;;;5053483;28;20028;-75
2021/07/19 07:41:16;;;;;;;9.07;4.20;;;20.80;78.20;;;;;;5053708;28;20170;-76
2021/07/19 07:43:42;;;;;;;7.95;4.10;;;20.90;78.10;;;;;;5044595;28;20033;-75
2021/07/19 07:46:08;;;;;;;7.70;4.07;;;20.90;77.80;;;;;;5033921;28;20029;-75
2021/07/19 07:48:35;;;;;;;7.50;4.22;;;21.00;78.00;;;;;;5033626;28;20030;-76
2021/07/19 07:51:01;;;;;;;8.88;4.22;;;21.10;76.90;;;;;;5033593;28;20029;-75
2021/07/19 07:53:27;;;;;;;7.07;4.00;;;21.20;76.30;;;;;;5034837;28;20025;-76
2021/07/19 07:55:53;;;;;;;8.68;4.43;;;21.20;75.90;;;;;;5033195;28;20064;-75
2021/07/19 07:58:18;;;;;;;8.60;4.40;;;21.30;75.30;;;;;;5034479;28;20474;-74
2021/07/19 08:00:44;;;;;;;8.82;4.72;;;21.40;74.30;;;;;;5033675;28;20439;-75
2021/07/19 08:03:10;;;;;;;6.82;4.45;;;21.50;73.20;;;;;;5017169;28;20029;-75
2021/07/19 08:05:36;;;;;;;8.93;5.00;;;21.60;72.80;;;;;;5036136;28;20021;-76
2021/07/19 08:08:02;;;;;;;7.95;4.45;;;21.60;72.80;;;;;;5043797;28;20530;-75
2021/07/19 08:10:28;;;;;;;8.57;4.55;;;21.70;72.30;;;;;;5025140;28;20034;-75
2021/07/19 08:12:54;;;;;;;8.32;4.00;;;21.80;71.80;;;;;;5034661;28;20037;-75
2021/07/19 08:15:19;;;;;;;8.00;4.20;;;21.90;71.20;;;;;;5034468;28;20035;-76
2021/07/19 08:17:45;;;;;;;7.07;3.55;;;22.00;70.90;;;;;;5016819;28;20473;-76
2021/07/19 08:20:12;;;;;;;8.57;4.88;;;22.10;70.30;;;;;;5034714;28;20470;-76
2021/07/19 08:22:37;;;;;;;7.90;4.55;;;22.20;70.30;;;;;;5033117;28;20029;-75
2021/07/19 08:25:04;;;;;;;11.30;4.60;;;22.30;70.20;;;;;;5019783;28;20021;-76
2021/07/19 08:27:30;;;;;;;15.15;5.10;;;22.30;70.00;;;;;;5053075;28;20116;-76
2021/07/19 08:29:55;;;;;;;8.18;4.75;;;22.40;69.20;;;;;;5053753;28;20564;-76
2021/07/19 08:32:21;;;;;;;10.07;5.18;;;22.40;68.70;;;;;;5053108;28;20504;-75
2021/07/19 08:34:48;;;;;;;10.88;5.40;;;22.40;68.10;;;;;;5020555;28;20365;-76
2021/07/19 08:37:14;;;;;;;9.52;5.03;;;22.30;67.90;;;;;;5036394;28;20410;-76
2021/07/19 08:39:41;;;;;;;8.75;5.47;;;22.40;67.50;;;;;;5054290;28;20029;-75
2021/07/19 08:42:13;;;;;;;9.20;4.93;;;22.40;67.00;;;;;;5036459;28;20047;-76
2021/07/19 08:44:39;;;;;;;9.57;5.50;;;22.40;66.60;;;;;;5052774;28;20380;-76
2021/07/19 08:47:09;;;;;;;9.40;5.32;;;22.50;66.10;;;;;;5054226;28;20021;-75
2021/07/19 08:49:36;;;;;;;9.75;5.10;;;22.50;66.00;;;;;;5052847;28;20047;-75
2021/07/19 08:52:03;;;;;;;7.95;4.97;;;22.40;66.20;;;;;;5054113;28;20029;-76
2021/07/19 08:54:33;;;;;;;9.18;4.93;;;22.50;66.40;;;;;;5036098;28;20079;-76
2021/07/19 08:56:59;;;;;;;11.60;5.53;;;22.40;66.30;;;;;;5053602;28;20045;-76
2021/07/19 08:59:25;;;;;;;10.40;4.97;;;22.40;66.20;;;;;;5035947;28;20037;-75
2021/07/19 09:01:52;;;;;;;10.10;5.43;;;22.40;66.40;;;;;;5052566;28;20104;-75
2021/07/19 09:04:19;;;;;;;9.85;5.88;;;22.40;66.30;;;;;;5053583;28;20528;-75
2021/07/19 09:06:46;;;;;;;8.95;5.38;;;22.30;66.30;;;;;;5052839;28;20085;-75
2021/07/19 09:09:11;;;;;;;8.73;4.85;;;22.30;66.30;;;;;;5052488;28;20024;-75
2021/07/19 09:11:50;;;;;;;10.57;5.68;;;22.30;66.10;;;;;;5053028;28;20029;-75
2021/07/19 09:14:16;;;;;;;7.68;4.90;;;22.30;66.10;;;;;;5053569;28;20029;-75
2021/07/19 09:16:51;;;;;;;8.95;5.55;;;22.30;66.20;;;;;;5053647;28;20024;-75
2021/07/19 09:19:20;;;;;;;9.68;4.93;;;22.30;66.00;;;;;;5052037;28;20032;-75
2021/07/19 09:21:48;;;;;;;8.43;4.90;;;22.30;66.00;;;;;;5049594;28;20017;-76
2021/07/19 09:24:19;;;;;;;8.90;5.45;;;22.30;66.00;;;;;;5041452;28;20024;-76
2021/07/19 09:26:47;;;;;;;10.93;5.30;;;22.40;66.00;;;;;;5051703;28;20021;-75
2021/07/19 09:29:16;;;;;;;9.02;5.15;;;22.40;66.00;;;;;;5051845;28;20029;-75
2021/07/19 09:31:44;;;;;;;12.88;6.13;;;22.50;65.80;;;;;;5051880;28;20449;-75
2021/07/19 09:34:24;;;;;;;12.85;6.07;;;22.60;65.60;;;;;;5052382;28;20102;-75
2021/07/19 09:37:13;;;;;;;12.35;6.07;;;22.70;65.40;;;;;;5053026;28;20056;-75
2021/07/19 09:39:45;;;;;;;8.77;5.15;;;22.90;65.30;;;;;;5019378;28;20037;-75
2021/07/19 09:42:13;;;;;;;7.28;4.18;;;23.10;65.50;;;;;;5046839;28;20091;-78
2021/07/19 09:44:41;;;;;;;12.13;5.65;;;23.20;65.60;;;;;;5053512;28;20017;-78
2021/07/19 09:47:09;;;;;;;7.57;4.75;;;23.40;65.10;;;;;;5045655;28;20040;-78
2021/07/19 09:49:35;;;;;;;10.77;5.75;;;23.60;64.80;;;;;;5036238;28;20070;-78
2021/07/19 09:52:06;;;;;;;10.85;6.05;;;23.70;64.30;;;;;;5036071;28;20018;-79
2021/07/19 09:54:44;;;;;;;10.10;5.72;;;23.70;64.00;;;;;;5036015;28;20436;-78
2021/07/19 09:57:11;;;;;;;9.50;4.97;;;23.80;63.90;;;;;;5036851;28;20046;-79
2021/07/19 09:59:48;;;;;;;10.63;5.50;;;23.80;63.40;;;;;;5037232;28;20032;-78
2021/07/19 10:02:36;;;;;;;8.93;5.18;;;24.00;63.40;;;;;;5036029;28;20095;-79
2021/07/19 10:05:03;;;;;;;9.65;4.93;;;24.10;63.10;;;;;;5035772;28;20381;-78
2021/07/19 10:07:29;;;;;;;9.52;5.30;;;24.30;63.10;;;;;;5037361;28;20033;-79
2021/07/19 10:09:59;;;;;;;9.43;5.38;;;24.40;63.40;;;;;;5051547;28;20037;-79
2021/07/19 10:12:25;;;;;;;9.10;5.07;;;24.50;62.70;;;;;;5055526;28;20029;-78
2021/07/19 10:14:52;;;;;;;10.65;5.60;;;24.60;62.50;;;;;;5055538;28;20040;-78
2021/07/19 10:17:18;;;;;;;10.40;5.43;;;24.70;62.20;;;;;;5039054;28;20029;-78
2021/07/19 10:19:44;;;;;;;9.73;5.47;;;24.80;61.80;;;;;;5050597;28;20022;-79
2021/07/19 10:22:11;;;;;;;9.18;5.03;;;24.80;61.40;;;;;;5051061;28;20569;-78
2021/07/19 10:24:44;;;;;;;9.25;5.95;;;25.00;61.20;;;;;;5018853;28;20030;-80
2021/07/19 10:27:21;;;;;;;9.80;5.72;;;25.10;60.90;;;;;;5018892;28;20021;-79
2021/07/19 10:29:48;;;;;;;9.05;5.60;;;25.10;60.70;;;;;;5035332;28;20022;-79
2021/07/19 10:32:18;;;;;;;9.00;6.05;;;25.30;60.50;;;;;;5035318;28;20013;-78
2021/07/19 10:34:49;;;;;;;9.02;4.85;;;25.40;60.00;;;;;;5036456;28;20469;-79
2021/07/19 10:37:39;;;;;;;10.05;5.53;;;25.60;59.70;;;;;;5035091;28;20075;-77
2021/07/19 10:40:10;;;;;;;11.23;5.88;;;25.80;59.00;;;;;;5035633;28;20038;-77
2021/07/19 10:42:42;;;;;;;11.15;5.30;;;25.90;58.40;;;;;;5036550;28;20013;-79
2021/07/19 10:45:32;;;;;;;9.07;4.85;;;26.00;58.10;;;;;;5019777;28;20381;-80
2021/07/19 10:47:58;;;;;;;8.45;5.28;;;26.00;58.00;;;;;;5036292;28;20079;-80
2021/07/19 10:50:26;;;;;;;9.80;5.50;;;26.00;57.80;;;;;;5029625;28;20121;-78
2021/07/19 10:52:52;;;;;;;9.18;6.18;;;25.80;57.30;;;;;;5055454;28;20028;-79
2021/07/19 10:55:30;;;;;;;8.40;5.75;;;25.70;57.40;;;;;;5054829;28;20035;-79
2021/07/19 10:58:03;;;;;;;7.78;5.40;;;25.60;57.60;;;;;;5056095;28;20025;-79
2021/07/19 11:00:33;;;;;;;8.05;5.78;;;25.60;57.70;;;;;;5056269;28;20025;-78
2021/07/19 11:03:07;;;;;;;10.52;6.13;;;25.60;57.60;;;;;;5056012;28;20056;-79
2021/07/19 11:05:38;;;;;;;8.77;5.80;;;25.60;57.60;;;;;;5055867;28;20070;-79
2021/07/19 11:08:05;;;;;;;7.85;5.60;;;25.70;57.60;;;;;;5055873;28;20028;-80
2021/07/19 11:10:44;;;;;;;11.25;6.50;;;25.80;57.40;;;;;;5055063;28;20037;-78
2021/07/19 11:13:09;;;;;;;10.50;6.05;;;25.80;57.10;;;;;;5054913;28;20033;-79
2021/07/19 11:15:37;;;;;;;8.07;5.97;;;25.90;57.20;;;;;;5055845;28;20083;-79
2021/07/19 11:18:18;;;;;;;10.43;5.95;;;26.00;57.30;;;;;;5054385;28;20021;-78
2021/07/19 11:20:45;;;;;;;11.18;6.60;;;26.20;57.10;;;;;;5054702;28;20025;-79
2021/07/19 11:23:12;;;;;;;11.52;5.93;;;26.30;56.90;;;;;;5055486;28;20017;-78
2021/07/19 11:25:43;;;;;;;8.98;5.90;;;26.30;56.30;;;;;;5055554;28;20036;-79
2021/07/19 11:28:20;;;;;;;9.05;6.25;;;26.40;55.90;;;;;;5054197;28;20070;-78
2021/07/19 11:31:00;;;;;;;9.95;6.53;;;26.50;55.40;;;;;;5054329;28;20040;-77
2021/07/19 11:33:40;;;;;;;10.07;5.57;;;26.50;55.00;;;;;;5054375;28;20040;-79
2021/07/19 11:36:16;;;;;;;9.32;5.72;;;26.40;55.00;;;;;;5055585;28;20036;-79
2021/07/19 11:38:42;;;;;;;10.20;6.82;;;26.50;55.50;;;;;;5053920;28;20033;-78
2021/07/19 11:41:23;;;;;;;9.75;6.32;;;27.10;55.70;;;;;;5054164;28;20031;-79
2021/07/19 11:43:52;;;;;;;9.88;6.47;;;27.80;54.70;;;;;;5054155;28;20083;-76
2021/07/19 11:46:31;;;;;;;8.88;5.45;;;28.10;53.80;;;;;;5054025;28;20064;-77
2021/07/19 11:49:21;;;;;;;9.65;6.10;;;28.10;52.70;;;;;;5054163;28;20028;-76
2021/07/19 11:51:47;;;;;;;9.98;6.38;;;28.00;52.00;;;;;;5055055;28;20469;-76
2021/07/19 11:54:16;;;;;;;9.45;7.05;;;27.90;52.10;;;;;;5020988;28;20123;-76
2021/07/19 11:56:56;;;;;;;10.60;6.95;;;27.90;51.70;;;;;;5053572;28;20085;-76
2021/07/19 11:59:27;;;;;;;12.18;8.00;;;27.80;51.60;;;;;;5053771;28;20033;-77
2021/07/19 12:02:06;;;;;;;10.07;7.13;;;27.90;51.50;;;;;;5054983;28;20032;-77
2021/07/19 12:04:38;;;;;;;10.93;7.53;;;28.30;51.20;;;;;;5052580;28;20013;-76
2021/07/19 12:07:05;;;;;;;10.43;7.25;;;28.90;50.70;;;;;;5054935;28;20024;-76
2021/07/19 12:09:30;;;;;;;10.38;7.00;;;29.40;50.00;;;;;;5053754;28;20397;-76
2021/07/19 12:11:57;;;;;;;10.82;7.18;;;29.70;49.40;;;;;;5053734;28;20025;-76
2021/07/19 12:14:23;;;;;;;10.55;7.30;;;29.60;48.90;;;;;;5054714;28;20036;-77
2021/07/19 12:16:48;;;;;;;12.02;7.65;;;29.40;48.40;;;;;;5053276;28;20334;-78
2021/07/19 12:19:17;;;;;;;11.15;7.22;;;28.90;47.80;;;;;;5054547;28;20041;-77
2021/07/19 12:21:55;;;;;;;11.45;8.05;;;28.50;48.30;;;;;;5054420;28;20380;-76
2021/07/19 12:24:25;;;;;;;11.50;7.43;;;27.90;48.60;;;;;;5054412;28;20035;-76
2021/07/19 12:26:55;;;;;;;10.65;6.93;;;27.50;49.30;;;;;;5053117;28;20436;-76
2021/07/19 12:29:25;;;;;;;11.48;7.40;;;27.30;49.80;;;;;;5053345;28;20064;-76
2021/07/19 12:31:52;;;;;;;11.40;6.90;;;27.30;50.20;;;;;;5052966;28;20025;-76
2021/07/19 12:34:26;;;;;;;10.10;6.93;;;27.50;50.30;;;;;;5054617;28;20029;-76
2021/07/19 12:36:55;;;;;;;10.52;6.57;;;28.00;50.40;;;;;;5054455;28;20460;-76
2021/07/19 12:39:35;;;;;;;9.68;6.53;;;28.60;50.60;;;;;;5052806;28;20070;-76
2021/07/19 12:42:09;;;;;;;10.05;6.30;;;29.40;49.80;;;;;;5052861;28;20017;-77
2021/07/19 12:44:35;;;;;;;10.70;6.63;;;30.10;49.20;;;;;;5053996;28;20021;-77
2021/07/19 12:47:01;;;;;;;9.00;6.75;;;30.60;48.20;;;;;;5054210;28;20112;-77
2021/07/19 12:49:35;;;;;;;11.55;7.38;;;31.00;47.50;;;;;;5053982;28;20175;-77
2021/07/19 12:52:02;;;;;;;8.65;6.88;;;31.30;45.90;;;;;;5052793;28;20407;-77